Time,TemperatureF,DewpointF,PressureIn,WindDirection,WindDirectionDegrees,WindSpeedMPH,WindSpeedGustMPH,Humidity,HourlyPrecipIn,Conditions,Clouds,dailyrainin,SoftwareType,DateUTC
2013-10-21 00:00:00,43.9,39.7,30.03,WNW,289,0.0,1.0,85,0.00,,CLR,0.00,VWS V12.08,2013-10-21 04:00:00,
2013-10-21 00:01:00,42.8,39.5,30.03,WNW,289,0.0,2.0,88,0.00,,CLR,0.00,VWS V12.08,2013-10-21 04:01:00,
2013-10-21 00:06:00,42.7,39.4,30.03,WNW,289,0.0,1.0,88,0.00,,CLR,0.00,VWS V12.08,2013-10-21 04:06:00,
2013-10-21 00:10:00,43.7,39.8,30.03,WNW,289,0.0,1.0,86,0.00,,CLR,0.00,VWS V12.08,2013-10-21 04:10:00,
2013-10-21 00:11:00,42.6,39.6,30.03,WNW,289,0.0,2.0,89,0.00,,CLR,0.00,VWS V12.08,2013-10-21 04:11:00,
2013-10-21 00:16:00,42.5,39.5,30.03,WNW,289,0.0,1.0,89,0.00,,CLR,0.00,VWS V12.08,2013-10-21 04:16:00,
2013-10-21 00:20:00,43.5,39.6,30.03,WNW,289,1.0,1.0,86,0.00,,CLR,0.00,VWS V12.08,2013-10-21 04:20:00,
2013-10-21 00:21:00,42.4,39.4,30.03,WNW,289,0.0,1.0,89,0.00,,CLR,0.00,VWS V12.08,2013-10-21 04:21:00,
2013-10-21 00:26:00,42.3,39.3,30.03,WNW,289,0.0,0.0,89,0.00,,CLR,0.00,VWS V12.08,2013-10-21 04:26:00,
2013-10-21 00:30:00,43.4,39.5,30.03,WNW,289,0.0,1.0,86,0.00,,CLR,0.00,VWS V12.08,2013-10-21 04:30:00,
2013-10-21 00:31:00,42.2,39.2,30.03,WNW,289,0.0,0.0,89,0.00,,CLR,0.00,VWS V12.08,2013-10-21 04:31:00,
2013-10-21 00:36:00,42.2,39.2,30.03,WNW,289,0.0,0.0,89,0.00,,CLR,0.00,VWS V12.08,2013-10-21 04:36:00,
2013-10-21 00:40:00,43.2,39.6,30.03,WNW,289,0.0,1.0,87,0.00,,CLR,0.00,VWS V12.08,2013-10-21 04:40:00,
2013-10-21 00:41:00,42.2,39.2,30.03,WNW,289,0.0,0.0,89,0.00,,CLR,0.00,VWS V12.08,2013-10-21 04:41:00,
2013-10-21 00:46:00,42.2,39.5,30.03,WNW,289,0.0,0.0,90,0.00,,CLR,0.00,VWS V12.08,2013-10-21 04:46:00,
2013-10-21 00:50:00,42.9,39.6,30.03,WNW,289,0.0,1.0,88,0.00,,CLR,0.00,VWS V12.08,2013-10-21 04:50:00,
2013-10-21 00:51:00,42.2,39.5,30.03,WNW,289,0.0,2.0,90,0.00,,CLR,0.00,VWS V12.08,2013-10-21 04:51:00,
2013-10-21 00:56:00,42.2,39.2,30.03,WNW,289,1.0,1.0,89,0.00,,CLR,0.00,VWS V12.08,2013-10-21 04:56:00,
2013-10-21 01:00:00,42.8,39.5,30.03,WNW,289,0.0,2.0,88,0.00,,CLR,0.00,VWS V12.08,2013-10-21 05:00:00,
2013-10-21 01:01:00,42.3,39.3,30.03,WNW,289,0.0,1.0,89,0.00,,CLR,0.00,VWS V12.08,2013-10-21 05:01:00,
2013-10-21 01:06:00,42.3,39.3,30.03,WNW,289,2.0,2.0,89,0.00,,CLR,0.00,VWS V12.08,2013-10-21 05:06:00,
2013-10-21 01:10:00,42.6,39.6,30.03,WNW,289,1.0,2.0,89,0.00,,CLR,0.00,VWS V12.08,2013-10-21 05:10:00,
2013-10-21 01:11:00,42.5,39.5,30.03,WNW,289,0.0,2.0,89,0.00,,CLR,0.00,VWS V12.08,2013-10-21 05:11:00,
2013-10-21 01:16:00,42.5,39.2,30.04,WNW,289,1.0,1.0,88,0.00,,CLR,0.00,VWS V12.08,2013-10-21 05:16:00,
2013-10-21 01:20:00,42.4,39.4,30.03,WNW,289,0.0,1.0,89,0.00,,CLR,0.00,VWS V12.08,2013-10-21 05:20:00,
2013-10-21 01:21:00,42.5,39.2,30.04,WNW,289,0.0,1.0,88,0.00,,CLR,0.00,VWS V12.08,2013-10-21 05:21:00,
2013-10-21 01:26:00,42.4,39.1,30.04,WNW,289,0.0,0.0,88,0.00,,CLR,0.00,VWS V12.08,2013-10-21 05:26:00,
2013-10-21 01:30:00,42.2,39.2,30.03,WNW,289,0.0,0.0,89,0.00,,CLR,0.00,VWS V12.08,2013-10-21 05:30:00,
2013-10-21 01:31:00,42.3,39.3,30.04,WNW,289,0.0,1.0,89,0.00,,CLR,0.00,VWS V12.08,2013-10-21 05:31:00,
2013-10-21 01:36:00,42.2,38.9,30.04,WNW,289,0.0,0.0,88,0.00,,CLR,0.00,VWS V12.08,2013-10-21 05:36:00,
2013-10-21 01:40:00,42.2,39.2,30.03,WNW,289,0.0,0.0,89,0.00,,CLR,0.00,VWS V12.08,2013-10-21 05:40:00,
2013-10-21 01:41:00,42.0,39.0,30.04,WNW,289,0.0,1.0,89,0.00,,CLR,0.00,VWS V12.08,2013-10-21 05:41:00,
2013-10-21 01:46:00,41.9,38.9,30.04,WNW,289,0.0,0.0,89,0.00,,CLR,0.00,VWS V12.08,2013-10-21 05:46:00,
2013-10-21 01:50:00,42.2,39.5,30.03,WNW,289,0.0,2.0,90,0.00,,CLR,0.00,VWS V12.08,2013-10-21 05:50:00,
2013-10-21 01:51:00,41.8,38.8,30.04,WNW,289,0.0,1.0,89,0.00,,CLR,0.00,VWS V12.08,2013-10-21 05:51:00,
2013-10-21 01:56:00,41.7,39.0,30.04,WNW,289,0.0,0.0,90,0.00,,CLR,0.00,VWS V12.08,2013-10-21 05:56:00,
2013-10-21 02:00:00,42.2,39.2,30.03,WNW,289,1.0,3.0,89,0.00,,CLR,0.00,VWS V12.08,2013-10-21 06:00:00,
2013-10-21 02:01:00,41.6,38.9,30.05,WNW,289,0.0,1.0,90,0.00,,CLR,0.00,VWS V12.08,2013-10-21 06:01:00,
2013-10-21 02:06:00,41.5,38.8,30.05,WNW,289,0.0,0.0,90,0.00,,CLR,0.00,VWS V12.08,2013-10-21 06:06:00,
2013-10-21 02:10:00,42.5,39.5,30.03,WNW,289,1.0,2.0,89,0.00,,CLR,0.00,VWS V12.08,2013-10-21 06:10:00,
2013-10-21 02:11:00,41.4,38.7,30.05,WNW,289,0.0,0.0,90,0.00,,CLR,0.00,VWS V12.08,2013-10-21 06:11:00,
2013-10-21 02:16:00,41.3,38.6,30.05,WNW,289,0.0,1.0,90,0.00,,CLR,0.00,VWS V12.08,2013-10-21 06:16:00,
2013-10-21 02:20:00,42.4,39.1,30.04,WNW,289,0.0,1.0,88,0.00,,CLR,0.00,VWS V12.08,2013-10-21 06:20:00,
2013-10-21 02:21:00,41.3,38.9,30.05,WNW,289,0.0,1.0,91,0.00,,CLR,0.00,VWS V12.08,2013-10-21 06:21:00,
2013-10-21 02:26:00,41.2,38.8,30.05,WNW,289,0.0,1.0,91,0.00,,CLR,0.00,VWS V12.08,2013-10-21 06:26:00,
2013-10-21 02:30:00,42.2,38.9,30.04,WNW,289,0.0,1.0,88,0.00,,CLR,0.00,VWS V12.08,2013-10-21 06:30:00,
2013-10-21 02:31:00,41.1,38.7,30.06,WNW,289,0.0,1.0,91,0.00,,CLR,0.00,VWS V12.08,2013-10-21 06:31:00,
2013-10-21 02:36:00,41.1,38.7,30.06,WNW,289,0.0,0.0,91,0.00,,CLR,0.00,VWS V12.08,2013-10-21 06:36:00,
2013-10-21 02:40:00,42.0,39.0,30.04,WNW,289,0.0,1.0,89,0.00,,CLR,0.00,VWS V12.08,2013-10-21 06:40:00,
2013-10-21 02:41:00,41.0,38.6,30.06,WNW,289,0.0,2.0,91,0.00,,CLR,0.00,VWS V12.08,2013-10-21 06:41:00,
2013-10-21 02:46:00,40.9,38.5,30.06,WNW,289,0.0,1.0,91,0.00,,CLR,0.00,VWS V12.08,2013-10-21 06:46:00,
2013-10-21 02:50:00,41.8,38.8,30.04,WNW,289,0.0,1.0,89,0.00,,CLR,0.00,VWS V12.08,2013-10-21 06:50:00,
2013-10-21 02:51:00,40.9,38.8,30.06,WNW,289,0.0,1.0,92,0.00,,CLR,0.00,VWS V12.08,2013-10-21 06:51:00,
2013-10-21 02:56:00,40.9,38.8,30.06,WNW,289,0.0,1.0,92,0.00,,CLR,0.00,VWS V12.08,2013-10-21 06:56:00,
2013-10-21 03:00:00,41.6,38.9,30.05,WNW,289,0.0,1.0,90,0.00,,CLR,0.00,VWS V12.08,2013-10-21 07:00:00,
2013-10-21 03:01:00,40.8,38.7,30.06,WNW,289,0.0,1.0,92,0.00,,CLR,0.00,VWS V12.08,2013-10-21 07:01:00,
2013-10-21 03:06:00,40.7,38.6,30.06,WNW,289,0.0,1.0,92,0.00,,CLR,0.00,VWS V12.08,2013-10-21 07:06:00,
2013-10-21 03:10:00,41.4,38.7,30.05,WNW,289,0.0,0.0,90,0.00,,CLR,0.00,VWS V12.08,2013-10-21 07:10:00,
2013-10-21 03:11:00,40.6,38.5,30.06,WNW,289,0.0,1.0,92,0.00,,CLR,0.00,VWS V12.08,2013-10-21 07:11:00,
2013-10-21 03:16:00,40.5,38.4,30.06,WNW,289,0.0,1.0,92,0.00,,CLR,0.00,VWS V12.08,2013-10-21 07:16:00,
2013-10-21 03:20:00,41.2,38.8,30.05,WNW,289,0.0,1.0,91,0.00,,CLR,0.00,VWS V12.08,2013-10-21 07:20:00,
2013-10-21 03:21:00,40.4,38.3,30.06,WNW,289,0.0,1.0,92,0.00,,CLR,0.00,VWS V12.08,2013-10-21 07:21:00,
2013-10-21 03:26:00,40.3,38.2,30.06,WNW,289,0.0,0.0,92,0.00,,CLR,0.00,VWS V12.08,2013-10-21 07:26:00,
2013-10-21 03:30:00,41.1,38.7,30.06,WNW,289,0.0,1.0,91,0.00,,CLR,0.00,VWS V12.08,2013-10-21 07:30:00,
2013-10-21 03:31:00,40.1,38.0,30.07,WNW,289,0.0,0.0,92,0.00,,CLR,0.00,VWS V12.08,2013-10-21 07:31:00,
2013-10-21 03:36:00,40.0,38.1,30.07,WNW,289,0.0,0.0,93,0.00,,CLR,0.00,VWS V12.08,2013-10-21 07:36:00,
2013-10-21 03:40:00,41.0,38.6,30.06,WNW,289,0.0,2.0,91,0.00,,CLR,0.00,VWS V12.08,2013-10-21 07:40:00,
2013-10-21 03:41:00,39.8,38.0,30.07,WNW,289,0.0,0.0,93,0.00,,CLR,0.00,VWS V12.08,2013-10-21 07:41:00,
2013-10-21 03:46:00,39.7,37.8,30.07,WNW,289,0.0,0.0,93,0.00,,CLR,0.00,VWS V12.08,2013-10-21 07:46:00,
2013-10-21 03:50:00,40.9,38.8,30.06,WNW,289,1.0,1.0,92,0.00,,CLR,0.00,VWS V12.08,2013-10-21 07:50:00,
2013-10-21 03:51:00,39.7,38.1,30.07,WNW,289,0.0,0.0,94,0.00,,CLR,0.00,VWS V12.08,2013-10-21 07:51:00,
2013-10-21 03:56:00,39.8,38.2,30.07,WNW,289,0.0,0.0,94,0.00,,CLR,0.00,VWS V12.08,2013-10-21 07:56:00,
2013-10-21 04:00:00,40.8,38.7,30.06,WNW,289,0.0,1.0,92,0.00,,CLR,0.00,VWS V12.08,2013-10-21 08:00:00,
2013-10-21 04:01:00,39.8,38.2,30.07,WNW,289,0.0,0.0,94,0.00,,CLR,0.00,VWS V12.08,2013-10-21 08:01:00,
2013-10-21 04:06:00,39.8,38.2,30.07,WNW,289,0.0,0.0,94,0.00,,CLR,0.00,VWS V12.08,2013-10-21 08:06:00,
2013-10-21 04:10:00,40.6,38.5,30.06,WNW,289,0.0,1.0,92,0.00,,CLR,0.00,VWS V12.08,2013-10-21 08:10:00,
2013-10-21 04:11:00,39.8,38.2,30.07,WNW,289,0.0,0.0,94,0.00,,CLR,0.00,VWS V12.08,2013-10-21 08:11:00,
2013-10-21 04:16:00,39.7,38.1,30.07,WNW,289,0.0,0.0,94,0.00,,CLR,0.00,VWS V12.08,2013-10-21 08:16:00,
2013-10-21 04:20:00,40.4,38.3,30.06,WNW,289,0.0,1.0,92,0.00,,CLR,0.00,VWS V12.08,2013-10-21 08:20:00,
2013-10-21 04:21:00,39.7,38.1,30.07,WNW,289,0.0,0.0,94,0.00,,CLR,0.00,VWS V12.08,2013-10-21 08:21:00,
2013-10-21 04:26:00,39.7,38.1,30.07,WNW,289,0.0,0.0,94,0.00,,CLR,0.00,VWS V12.08,2013-10-21 08:26:00,
2013-10-21 04:30:00,40.1,38.0,30.07,WNW,289,0.0,0.0,92,0.00,,CLR,0.00,VWS V12.08,2013-10-21 08:30:00,
2013-10-21 04:31:00,39.8,38.5,30.07,WNW,289,0.0,0.0,95,0.00,,CLR,0.00,VWS V12.08,2013-10-21 08:31:00,
2013-10-21 04:36:00,39.9,38.6,30.07,WNW,289,0.0,0.0,95,0.00,,CLR,0.00,VWS V12.08,2013-10-21 08:36:00,
2013-10-21 04:40:00,39.8,37.9,30.07,WNW,289,0.0,0.0,93,0.00,,CLR,0.00,VWS V12.08,2013-10-21 08:40:00,
2013-10-21 04:41:00,40.0,38.4,30.07,WNW,289,0.0,0.0,94,0.00,,CLR,0.00,VWS V12.08,2013-10-21 08:41:00,
2013-10-21 04:46:00,40.0,38.4,30.07,WNW,289,0.0,0.0,94,0.00,,CLR,0.00,VWS V12.08,2013-10-21 08:46:00,
2013-10-21 04:50:00,39.7,38.1,30.07,WNW,289,0.0,0.0,94,0.00,,CLR,0.00,VWS V12.08,2013-10-21 08:50:00,
2013-10-21 04:51:00,40.1,38.5,30.07,WNW,289,0.0,0.0,94,0.00,,CLR,0.00,VWS V12.08,2013-10-21 08:51:00,
2013-10-21 04:56:00,40.1,38.5,30.07,WNW,289,0.0,0.0,94,0.00,,CLR,0.00,VWS V12.08,2013-10-21 08:56:00,
2013-10-21 05:00:00,39.8,38.2,30.07,WNW,289,0.0,0.0,94,0.00,,CLR,0.00,VWS V12.08,2013-10-21 09:00:00,
2013-10-21 05:01:00,40.2,38.6,30.08,WNW,289,0.0,0.0,94,0.00,,CLR,0.00,VWS V12.08,2013-10-21 09:01:00,
2013-10-21 05:06:00,40.1,38.5,30.08,WNW,289,0.0,0.0,94,0.00,,CLR,0.00,VWS V12.08,2013-10-21 09:06:00,
2013-10-21 05:10:00,39.8,38.2,30.07,WNW,289,0.0,0.0,94,0.00,,CLR,0.00,VWS V12.08,2013-10-21 09:10:00,
2013-10-21 05:11:00,40.0,38.4,30.08,WNW,289,0.0,0.0,94,0.00,,CLR,0.00,VWS V12.08,2013-10-21 09:11:00,
2013-10-21 05:16:00,40.0,38.4,30.08,WNW,289,0.0,0.0,94,0.00,,CLR,0.00,VWS V12.08,2013-10-21 09:16:00,
2013-10-21 05:20:00,39.7,38.1,30.07,WNW,289,0.0,0.0,94,0.00,,CLR,0.00,VWS V12.08,2013-10-21 09:20:00,
2013-10-21 05:21:00,39.9,38.3,30.08,WNW,289,0.0,0.0,94,0.00,,CLR,0.00,VWS V12.08,2013-10-21 09:21:00,
2013-10-21 05:26:00,39.8,38.2,30.08,WNW,289,0.0,0.0,94,0.00,,CLR,0.00,VWS V12.08,2013-10-21 09:26:00,
2013-10-21 05:30:00,39.8,38.5,30.07,WNW,289,0.0,0.0,95,0.00,,CLR,0.00,VWS V12.08,2013-10-21 09:30:00,
2013-10-21 05:31:00,39.7,38.1,30.08,WNW,289,0.0,0.0,94,0.00,,CLR,0.00,VWS V12.08,2013-10-21 09:31:00,
2013-10-21 05:36:00,39.6,38.0,30.08,WNW,289,0.0,0.0,94,0.00,,CLR,0.00,VWS V12.08,2013-10-21 09:36:00,
2013-10-21 05:40:00,40.0,38.4,30.07,WNW,289,0.0,0.0,94,0.00,,CLR,0.00,VWS V12.08,2013-10-21 09:40:00,
2013-10-21 05:41:00,39.5,37.9,30.08,WNW,289,0.0,0.0,94,0.00,,CLR,0.00,VWS V12.08,2013-10-21 09:41:00,
2013-10-21 05:46:00,39.4,37.8,30.08,WNW,289,0.0,0.0,94,0.00,,CLR,0.00,VWS V12.08,2013-10-21 09:46:00,
2013-10-21 05:50:00,40.1,38.5,30.07,WNW,289,0.0,0.0,94,0.00,,CLR,0.00,VWS V12.08,2013-10-21 09:50:00,
2013-10-21 05:51:00,39.3,37.7,30.08,WNW,289,0.0,0.0,94,0.00,,CLR,0.00,VWS V12.08,2013-10-21 09:51:00,
2013-10-21 05:56:00,39.3,37.7,30.08,WNW,289,0.0,0.0,94,0.00,,CLR,0.00,VWS V12.08,2013-10-21 09:56:00,
2013-10-21 06:00:00,40.2,38.6,30.08,WNW,289,0.0,0.0,94,0.00,,CLR,0.00,VWS V12.08,2013-10-21 10:00:00,
2013-10-21 06:01:00,39.3,38.0,30.08,WNW,289,0.0,0.0,95,0.00,,CLR,0.00,VWS V12.08,2013-10-21 10:01:00,
2013-10-21 06:06:00,39.3,37.7,30.08,WNW,289,0.0,0.0,94,0.00,,CLR,0.00,VWS V12.08,2013-10-21 10:06:00,
2013-10-21 06:10:00,40.0,38.4,30.08,WNW,289,0.0,0.0,94,0.00,,CLR,0.00,VWS V12.08,2013-10-21 10:10:00,
2013-10-21 06:11:00,39.2,37.6,30.08,WNW,289,0.0,0.0,94,0.00,,CLR,0.00,VWS V12.08,2013-10-21 10:11:00,
2013-10-21 06:16:00,39.1,37.5,30.08,WNW,289,0.0,0.0,94,0.00,,CLR,0.00,VWS V12.08,2013-10-21 10:16:00,
2013-10-21 06:20:00,39.9,38.3,30.08,WNW,289,0.0,0.0,94,0.00,,CLR,0.00,VWS V12.08,2013-10-21 10:20:00,
2013-10-21 06:21:00,39.0,37.4,30.09,WNW,289,0.0,0.0,94,0.00,,CLR,0.00,VWS V12.08,2013-10-21 10:21:00,
2013-10-21 06:26:00,38.8,37.2,30.09,WNW,289,0.0,0.0,94,0.00,,CLR,0.00,VWS V12.08,2013-10-21 10:26:00,
2013-10-21 06:30:00,39.7,38.1,30.08,WNW,289,0.0,0.0,94,0.00,,CLR,0.00,VWS V12.08,2013-10-21 10:30:00,
2013-10-21 06:31:00,38.7,37.1,30.09,WNW,289,0.0,0.0,94,0.00,,CLR,0.00,VWS V12.08,2013-10-21 10:31:00,
2013-10-21 06:36:00,38.6,37.3,30.10,WNW,289,0.0,0.0,95,0.00,,CLR,0.00,VWS V12.08,2013-10-21 10:36:00,
2013-10-21 06:40:00,39.5,37.9,30.08,WNW,289,0.0,0.0,94,0.00,,CLR,0.00,VWS V12.08,2013-10-21 10:40:00,
2013-10-21 06:41:00,38.5,37.2,30.10,WNW,289,0.0,0.0,95,0.00,,CLR,0.00,VWS V12.08,2013-10-21 10:41:00,
2013-10-21 06:46:00,38.5,37.2,30.10,WNW,289,0.0,0.0,95,0.00,,CLR,0.00,VWS V12.08,2013-10-21 10:46:00,
2013-10-21 06:50:00,39.3,37.7,30.08,WNW,289,0.0,0.0,94,0.00,,CLR,0.00,VWS V12.08,2013-10-21 10:50:00,
2013-10-21 06:51:00,38.4,37.1,30.10,WNW,289,0.0,0.0,95,0.00,,CLR,0.00,VWS V12.08,2013-10-21 10:51:00,
2013-10-21 06:56:00,38.2,36.6,30.10,WNW,289,0.0,0.0,94,0.00,,CLR,0.00,VWS V12.08,2013-10-21 10:56:00,
2013-10-21 07:00:00,39.3,38.0,30.08,WNW,289,0.0,0.0,95,0.00,,CLR,0.00,VWS V12.08,2013-10-21 11:00:00,
2013-10-21 07:01:00,38.0,36.4,30.10,WNW,289,0.0,0.0,94,0.00,,CLR,0.00,VWS V12.08,2013-10-21 11:01:00,
2013-10-21 07:06:00,37.9,36.3,30.09,WNW,289,0.0,0.0,94,0.00,,CLR,0.00,VWS V12.08,2013-10-21 11:06:00,
2013-10-21 07:10:00,39.2,37.6,30.08,WNW,289,0.0,0.0,94,0.00,,CLR,0.00,VWS V12.08,2013-10-21 11:10:00,
2013-10-21 07:11:00,37.8,36.5,30.09,WNW,289,0.0,0.0,95,0.00,,CLR,0.00,VWS V12.08,2013-10-21 11:11:00,
2013-10-21 07:16:00,37.7,36.4,30.09,WNW,289,0.0,0.0,95,0.00,,CLR,0.00,VWS V12.08,2013-10-21 11:16:00,
2013-10-21 07:20:00,39.0,37.4,30.09,WNW,289,0.0,0.0,94,0.00,,CLR,0.00,VWS V12.08,2013-10-21 11:20:00,
2013-10-21 07:21:00,37.5,35.9,30.10,WNW,289,0.0,0.0,94,0.00,,CLR,0.00,VWS V12.08,2013-10-21 11:21:00,
2013-10-21 07:26:00,37.3,35.7,30.10,WNW,289,0.0,0.0,94,0.00,,CLR,0.00,VWS V12.08,2013-10-21 11:26:00,
2013-10-21 07:30:00,38.6,37.0,30.10,WNW,289,0.0,0.0,94,0.00,,CLR,0.00,VWS V12.08,2013-10-21 11:30:00,
2013-10-21 07:31:00,37.2,35.6,30.10,WNW,289,0.0,0.0,94,0.00,,CLR,0.00,VWS V12.08,2013-10-21 11:31:00,
2013-10-21 07:36:00,37.0,35.4,30.10,WNW,289,0.0,0.0,94,0.00,,CLR,0.00,VWS V12.08,2013-10-21 11:36:00,
2013-10-21 07:40:00,36.9,35.3,30.10,WNW,289,0.0,0.0,94,0.00,,CLR,0.00,VWS V12.08,2013-10-21 11:40:00,
2013-10-21 07:45:00,36.9,35.6,30.10,WNW,289,0.0,0.0,95,0.00,,CLR,0.00,VWS V12.08,2013-10-21 11:45:00,
2013-10-21 07:50:00,37.2,35.9,30.10,WNW,289,0.0,0.0,95,0.00,,CLR,0.00,VWS V12.08,2013-10-21 11:50:00,
2013-10-21 07:55:00,37.7,36.7,30.10,WNW,289,0.0,0.0,96,0.00,,CLR,0.00,VWS V12.08,2013-10-21 11:55:00,
2013-10-21 08:00:00,38.6,37.6,30.10,WNW,289,0.0,1.0,96,0.00,,CLR,0.00,VWS V12.08,2013-10-21 12:00:00,
2013-10-21 08:05:00,39.2,38.2,30.10,WNW,289,0.0,0.0,96,0.00,,CLR,0.00,VWS V12.08,2013-10-21 12:05:00,
2013-10-21 08:10:00,39.9,38.6,30.10,WNW,289,0.0,0.0,95,0.00,,CLR,0.00,VWS V12.08,2013-10-21 12:10:00,
2013-10-21 08:16:00,40.4,38.8,30.10,WNW,289,0.0,0.0,94,0.00,,CLR,0.00,VWS V12.08,2013-10-21 12:16:00,
2013-10-21 08:20:00,37.5,35.9,30.10,WNW,289,0.0,0.0,94,0.00,,CLR,0.00,VWS V12.08,2013-10-21 12:20:00,
2013-10-21 08:21:00,40.7,38.8,30.11,WNW,289,0.0,0.0,93,0.00,,CLR,0.00,VWS V12.08,2013-10-21 12:21:00,
2013-10-21 08:26:00,41.1,39.5,30.11,WNW,289,0.0,0.0,94,0.00,,CLR,0.00,VWS V12.08,2013-10-21 12:26:00,
2013-10-21 08:30:00,37.1,35.5,30.10,WNW,289,0.0,0.0,94,0.00,,CLR,0.00,VWS V12.08,2013-10-21 12:30:00,
2013-10-21 08:31:00,41.6,40.3,30.12,WNW,289,0.0,0.0,95,0.00,,CLR,0.00,VWS V12.08,2013-10-21 12:31:00,
2013-10-21 08:36:00,42.0,40.1,30.12,WNW,289,0.0,0.0,93,0.00,,CLR,0.00,VWS V12.08,2013-10-21 12:36:00,
2013-10-21 08:40:00,36.8,35.2,30.10,WNW,289,0.0,0.0,94,0.00,,CLR,0.00,VWS V12.08,2013-10-21 12:40:00,
2013-10-21 08:41:00,42.2,40.0,30.12,WNW,289,0.0,0.0,92,0.00,,CLR,0.00,VWS V12.08,2013-10-21 12:41:00,
2013-10-21 08:46:00,42.4,40.5,30.12,WNW,289,0.0,0.0,93,0.00,,CLR,0.00,VWS V12.08,2013-10-21 12:46:00,
2013-10-21 08:50:00,37.3,36.3,30.10,WNW,289,0.0,0.0,96,0.00,,CLR,0.00,VWS V12.08,2013-10-21 12:50:00,
2013-10-21 08:51:00,42.7,40.5,30.12,WNW,289,0.0,0.0,92,0.00,,CLR,0.00,VWS V12.08,2013-10-21 12:51:00,
2013-10-21 08:56:00,43.0,41.1,30.12,WNW,289,0.0,0.0,93,0.00,,CLR,0.00,VWS V12.08,2013-10-21 12:56:00,
2013-10-21 09:00:00,38.7,37.7,30.10,WNW,289,0.0,1.0,96,0.00,,CLR,0.00,VWS V12.08,2013-10-21 13:00:00,
2013-10-21 09:01:00,43.3,41.4,30.12,WNW,289,0.0,0.0,93,0.00,,CLR,0.00,VWS V12.08,2013-10-21 13:01:00,
2013-10-21 09:06:00,43.6,41.7,30.12,WNW,289,0.0,0.0,93,0.00,,CLR,0.00,VWS V12.08,2013-10-21 13:06:00,
2013-10-21 09:10:00,40.1,38.8,30.10,WNW,289,0.0,0.0,95,0.00,,CLR,0.00,VWS V12.08,2013-10-21 13:10:00,
2013-10-21 09:11:00,44.1,41.4,30.12,WNW,289,0.0,0.0,90,0.00,,CLR,0.00,VWS V12.08,2013-10-21 13:11:00,
2013-10-21 09:16:00,44.9,41.6,30.12,WNW,289,0.0,0.0,88,0.00,,CLR,0.00,VWS V12.08,2013-10-21 13:16:00,
2013-10-21 09:20:00,40.8,38.9,30.11,WNW,289,0.0,0.0,93,0.00,,CLR,0.00,VWS V12.08,2013-10-21 13:20:00,
2013-10-21 09:21:00,45.6,41.7,30.12,WNW,289,0.0,0.0,86,0.00,,CLR,0.00,VWS V12.08,2013-10-21 13:21:00,
2013-10-21 09:26:00,46.1,42.5,30.12,WNW,289,0.0,0.0,87,0.00,,CLR,0.00,VWS V12.08,2013-10-21 13:26:00,
2013-10-21 09:30:00,41.7,40.1,30.12,WNW,289,0.0,0.0,94,0.00,,CLR,0.00,VWS V12.08,2013-10-21 13:30:00,
2013-10-21 09:31:00,46.5,42.8,30.12,WNW,289,0.0,0.0,87,0.00,,CLR,0.00,VWS V12.08,2013-10-21 13:31:00,
2013-10-21 09:36:00,47.0,42.7,30.12,WNW,289,0.0,1.0,85,0.00,,CLR,0.00,VWS V12.08,2013-10-21 13:36:00,
2013-10-21 09:40:00,42.2,40.3,30.12,WNW,289,0.0,0.0,93,0.00,,CLR,0.00,VWS V12.08,2013-10-21 13:40:00,
2013-10-21 09:41:00,47.5,42.9,30.12,WNW,289,0.0,1.0,84,0.00,,CLR,0.00,VWS V12.08,2013-10-21 13:41:00,
2013-10-21 09:46:00,48.1,43.2,30.12,WNW,289,0.0,1.0,83,0.00,,CLR,0.00,VWS V12.08,2013-10-21 13:46:00,
2013-10-21 09:50:00,42.7,40.8,30.12,WNW,289,0.0,0.0,93,0.00,,CLR,0.00,VWS V12.08,2013-10-21 13:50:00,
2013-10-21 09:51:00,48.8,44.2,30.12,WNW,289,0.0,1.0,84,0.00,,CLR,0.00,VWS V12.08,2013-10-21 13:51:00,
2013-10-21 09:56:00,49.5,43.6,30.12,WNW,289,0.0,1.0,80,0.00,,CLR,0.00,VWS V12.08,2013-10-21 13:56:00,
2013-10-21 10:00:00,43.4,41.5,30.12,WNW,289,0.0,0.0,93,0.00,,CLR,0.00,VWS V12.08,2013-10-21 14:00:00,
2013-10-21 10:01:00,50.4,44.1,30.11,WNW,289,0.0,1.0,79,0.00,,CLR,0.00,VWS V12.08,2013-10-21 14:01:00,
2013-10-21 10:06:00,51.2,44.6,30.11,WNW,289,0.0,1.0,78,0.00,,CLR,0.00,VWS V12.08,2013-10-21 14:06:00,
2013-10-21 10:10:00,44.3,41.3,30.12,WNW,289,0.0,0.0,89,0.00,,CLR,0.00,VWS V12.08,2013-10-21 14:10:00,
2013-10-21 10:11:00,51.7,44.0,30.11,WNW,289,0.0,1.0,75,0.00,,CLR,0.00,VWS V12.08,2013-10-21 14:11:00,
2013-10-21 10:16:00,52.4,43.7,30.11,WNW,289,0.0,2.0,72,0.00,,CLR,0.00,VWS V12.08,2013-10-21 14:16:00,
2013-10-21 10:20:00,45.7,41.8,30.12,WNW,289,0.0,0.0,86,0.00,,CLR,0.00,VWS V12.08,2013-10-21 14:20:00,
2013-10-21 10:21:00,52.9,43.4,30.10,South,174,0.0,4.0,70,0.00,,CLR,0.00,VWS V12.08,2013-10-21 14:21:00,
2013-10-21 10:26:00,53.5,43.2,30.10,SSE,166,2.0,2.0,68,0.00,,CLR,0.00,VWS V12.08,2013-10-21 14:26:00,
2013-10-21 10:30:00,46.6,42.6,30.12,WNW,289,0.0,0.0,86,0.00,,CLR,0.00,VWS V12.08,2013-10-21 14:30:00,
2013-10-21 10:31:00,54.2,43.5,30.10,South,185,0.0,4.0,67,0.00,,CLR,0.00,VWS V12.08,2013-10-21 14:31:00,
2013-10-21 10:36:00,54.8,42.9,30.10,SSW,198,0.0,3.0,64,0.00,,CLR,0.00,VWS V12.08,2013-10-21 14:36:00,
2013-10-21 10:40:00,47.6,42.7,30.12,WNW,289,0.0,1.0,83,0.00,,CLR,0.00,VWS V12.08,2013-10-21 14:40:00,
2013-10-21 10:41:00,55.2,44.5,30.10,SSW,198,0.0,3.0,67,0.00,,CLR,0.00,VWS V12.08,2013-10-21 14:41:00,
2013-10-21 10:46:00,55.7,43.3,30.10,South,188,2.0,4.0,63,0.00,,CLR,0.00,VWS V12.08,2013-10-21 14:46:00,
2013-10-21 10:50:00,48.9,43.7,30.12,WNW,289,0.0,1.0,82,0.00,,CLR,0.00,VWS V12.08,2013-10-21 14:50:00,
2013-10-21 10:51:00,56.4,43.1,30.10,SSE,155,0.0,5.0,61,0.00,,CLR,0.00,VWS V12.08,2013-10-21 14:51:00,
2013-10-21 10:56:00,56.8,43.1,30.10,SSE,156,0.0,1.0,60,0.00,,CLR,0.00,VWS V12.08,2013-10-21 14:56:00,
2013-10-21 11:00:00,50.5,43.9,30.11,WNW,289,0.0,1.0,78,0.00,,CLR,0.00,VWS V12.08,2013-10-21 15:00:00,
2013-10-21 11:01:00,57.4,44.9,30.10,South,180,0.0,1.0,63,0.00,,CLR,0.00,VWS V12.08,2013-10-21 15:01:00,
2013-10-21 11:06:00,58.0,44.2,30.10,SSE,166,0.0,3.0,60,0.00,,CLR,0.00,VWS V12.08,2013-10-21 15:06:00,
2013-10-21 11:10:00,51.9,43.9,30.11,WNW,289,0.0,1.0,74,0.00,,CLR,0.00,VWS V12.08,2013-10-21 15:10:00,
2013-10-21 11:11:00,58.6,44.3,30.10,NE,47,0.0,3.0,59,0.00,,CLR,0.00,VWS V12.08,2013-10-21 15:11:00,
2013-10-21 11:16:00,59.2,44.0,30.10,North,355,2.0,5.0,57,0.00,,CLR,0.00,VWS V12.08,2013-10-21 15:16:00,
2013-10-21 11:20:00,53.0,43.9,30.10,SSE,165,0.0,4.0,71,0.00,,CLR,0.00,VWS V12.08,2013-10-21 15:20:00,
2013-10-21 11:21:00,59.8,44.1,30.09,West,280,0.0,5.0,56,0.00,,CLR,0.00,VWS V12.08,2013-10-21 15:21:00,
2013-10-21 11:26:00,60.5,44.7,30.09,North,5,3.0,5.0,56,0.00,,CLR,0.00,VWS V12.08,2013-10-21 15:26:00,
2013-10-21 11:30:00,54.3,42.4,30.10,South,184,1.0,4.0,64,0.00,,CLR,0.00,VWS V12.08,2013-10-21 15:30:00,
2013-10-21 11:31:00,61.2,44.9,30.09,South,186,0.0,6.0,55,0.00,,CLR,0.00,VWS V12.08,2013-10-21 15:31:00,
2013-10-21 11:36:00,61.8,46.0,30.09,West,275,1.0,3.0,56,0.00,,CLR,0.00,VWS V12.08,2013-10-21 15:36:00,
2013-10-21 11:40:00,62.7,44.8,30.09,SSW,206,0.0,5.0,52,0.00,,CLR,0.00,VWS V12.08,2013-10-21 15:40:00,
2013-10-21 11:45:00,63.2,43.7,30.09,East,92,0.0,3.0,49,0.00,,CLR,0.00,VWS V12.08,2013-10-21 15:45:00,
2013-10-21 11:50:00,63.5,44.0,30.08,NNE,18,0.0,5.0,49,0.00,,CLR,0.00,VWS V12.08,2013-10-21 15:50:00,
2013-10-21 11:55:00,63.8,42.6,30.08,NNW,327,1.0,10.0,46,0.00,,CLR,0.00,VWS V12.08,2013-10-21 15:55:00,
2013-10-21 12:00:00,64.2,43.6,30.08,NNW,336,0.0,10.0,47,0.00,,CLR,0.00,VWS V12.08,2013-10-21 16:00:00,
2013-10-21 12:05:00,64.7,45.7,30.08,SSE,161,0.0,4.0,50,0.00,,CLR,0.00,VWS V12.08,2013-10-21 16:05:00,
2013-10-21 12:10:00,65.2,44.5,30.08,South,181,3.0,7.0,47,0.00,,CLR,0.00,VWS V12.08,2013-10-21 16:10:00,
2013-10-21 12:15:00,65.5,43.6,30.08,NW,315,0.0,4.0,45,0.00,,CLR,0.00,VWS V12.08,2013-10-21 16:15:00,
2013-10-21 12:20:00,65.9,44.6,30.07,South,178,1.0,4.0,46,0.00,,CLR,0.00,VWS V12.08,2013-10-21 16:20:00,
2013-10-21 12:25:00,66.0,44.7,30.07,SE,140,3.0,6.0,46,0.00,,CLR,0.00,VWS V12.08,2013-10-21 16:25:00,
2013-10-21 12:30:00,66.1,43.6,30.07,North,350,0.0,7.0,44,0.00,,CLR,0.00,VWS V12.08,2013-10-21 16:30:00,
2013-10-21 12:35:00,66.2,43.1,30.06,NW,319,1.0,3.0,43,0.00,,CLR,0.00,VWS V12.08,2013-10-21 16:35:00,
2013-10-21 12:40:00,66.2,42.5,30.06,SW,219,0.0,7.0,42,0.00,,CLR,0.00,VWS V12.08,2013-10-21 16:40:00,
2013-10-21 12:45:00,66.6,42.8,30.06,South,179,1.0,5.0,42,0.00,,CLR,0.00,VWS V12.08,2013-10-21 16:45:00,
2013-10-21 12:50:00,66.9,41.2,30.05,SW,220,3.0,5.0,39,0.00,,CLR,0.00,VWS V12.08,2013-10-21 16:50:00,
2013-10-21 12:55:00,67.0,43.8,30.05,SSW,196,5.0,8.0,43,0.00,,CLR,0.00,VWS V12.08,2013-10-21 16:55:00,
2013-10-21 13:00:00,67.1,40.0,30.05,SW,227,0.0,11.0,37,0.00,,CLR,0.00,VWS V12.08,2013-10-21 17:00:00,
2013-10-21 13:05:00,67.1,41.3,30.05,SSW,206,2.0,9.0,39,0.00,,CLR,0.00,VWS V12.08,2013-10-21 17:05:00,
2013-10-21 13:10:00,67.1,41.3,30.05,South,171,2.0,9.0,39,0.00,,CLR,0.00,VWS V12.08,2013-10-21 17:10:00,
2013-10-21 13:15:00,67.0,42.5,30.05,ESE,118,0.0,6.0,41,0.00,,CLR,0.00,VWS V12.08,2013-10-21 17:15:00,
2013-10-21 13:20:00,66.9,41.2,30.04,WSW,254,2.0,6.0,39,0.00,,CLR,0.00,VWS V12.08,2013-10-21 17:20:00,
2013-10-21 13:25:00,67.0,42.5,30.04,NW,307,0.0,6.0,41,0.00,,CLR,0.00,VWS V12.08,2013-10-21 17:25:00,
2013-10-21 13:30:00,67.3,41.5,30.04,West,277,3.0,6.0,39,0.00,,CLR,0.00,VWS V12.08,2013-10-21 17:30:00,
2013-10-21 13:35:00,67.4,42.9,30.03,West,273,0.0,5.0,41,0.00,,CLR,0.00,VWS V12.08,2013-10-21 17:35:00,
2013-10-21 13:40:00,67.5,41.0,30.03,SE,131,1.0,11.0,38,0.00,,CLR,0.00,VWS V12.08,2013-10-21 17:40:00,
2013-10-21 13:45:00,67.7,41.9,30.03,NW,317,2.0,6.0,39,0.00,,CLR,0.00,VWS V12.08,2013-10-21 17:45:00,
2013-10-21 13:50:00,67.6,41.8,30.02,WNW,294,1.0,11.0,39,0.00,,CLR,0.00,VWS V12.08,2013-10-21 17:50:00,
2013-10-21 13:55:00,67.4,40.9,30.02,South,181,0.0,5.0,38,0.00,,CLR,0.00,VWS V12.08,2013-10-21 17:55:00,
2013-10-21 14:00:00,67.0,41.9,30.02,ESE,109,0.0,9.0,40,0.00,,CLR,0.00,VWS V12.08,2013-10-21 18:00:00,
2013-10-21 14:05:00,66.6,41.5,30.02,North,360,0.0,6.0,40,0.00,,CLR,0.00,VWS V12.08,2013-10-21 18:05:00,
2013-10-21 14:10:00,66.3,40.0,30.02,South,188,4.0,12.0,38,0.00,,CLR,0.00,VWS V12.08,2013-10-21 18:10:00,
2013-10-21 14:15:00,65.9,39.6,30.02,South,182,2.0,7.0,38,0.00,,CLR,0.00,VWS V12.08,2013-10-21 18:15:00,
2013-10-21 14:20:00,65.8,39.5,30.01,SSW,202,4.0,12.0,38,0.00,,CLR,0.00,VWS V12.08,2013-10-21 18:20:00,
2013-10-21 14:25:00,65.5,39.9,30.01,ESE,112,5.0,10.0,39,0.00,,CLR,0.00,VWS V12.08,2013-10-21 18:25:00,
2013-10-21 14:30:00,65.3,40.4,30.01,ESE,122,1.0,10.0,40,0.00,,CLR,0.00,VWS V12.08,2013-10-21 18:30:00,
2013-10-21 14:35:00,65.3,40.4,30.00,SSW,200,2.0,11.0,40,0.00,,CLR,0.00,VWS V12.08,2013-10-21 18:35:00,
2013-10-21 14:40:00,65.3,39.1,30.00,North,11,0.0,11.0,38,0.00,,CLR,0.00,VWS V12.08,2013-10-21 18:40:00,
2013-10-21 14:45:00,65.3,41.0,30.00,NNW,330,1.0,3.0,41,0.00,,CLR,0.00,VWS V12.08,2013-10-21 18:45:00,
2013-10-21 14:50:00,65.4,41.1,30.00,WSW,241,1.0,3.0,41,0.00,,CLR,0.00,VWS V12.08,2013-10-21 18:50:00,
2013-10-21 14:55:00,65.5,41.8,30.00,ESE,120,0.0,7.0,42,0.00,,CLR,0.00,VWS V12.08,2013-10-21 18:55:00,
2013-10-21 15:00:00,65.4,41.1,30.00,South,182,1.0,7.0,41,0.00,,CLR,0.00,VWS V12.08,2013-10-21 19:00:00,
2013-10-21 15:05:00,65.3,41.0,29.99,South,188,5.0,11.0,41,0.00,,CLR,0.00,VWS V12.08,2013-10-21 19:05:00,
2013-10-21 15:10:00,65.3,41.0,29.99,ESE,104,1.0,11.0,41,0.00,,CLR,0.00,VWS V12.08,2013-10-21 19:10:00,
2013-10-21 15:15:00,65.4,41.1,29.99,South,169,1.0,11.0,41,0.00,,CLR,0.00,VWS V12.08,2013-10-21 19:15:00,
2013-10-21 15:20:00,65.2,40.9,29.99,SSW,202,4.0,11.0,41,0.00,,CLR,0.00,VWS V12.08,2013-10-21 19:20:00,
2013-10-21 15:25:00,65.3,40.4,29.99,SSE,161,0.0,9.0,40,0.00,,CLR,0.00,VWS V12.08,2013-10-21 19:25:00,
2013-10-21 15:30:00,65.2,40.3,29.99,SSW,196,6.0,9.0,40,0.00,,CLR,0.00,VWS V12.08,2013-10-21 19:30:00,
2013-10-21 15:35:00,65.1,40.2,29.98,SW,230,0.0,12.0,40,0.00,,CLR,0.00,VWS V12.08,2013-10-21 19:35:00,
2013-10-21 15:40:00,64.8,40.6,29.98,North,355,0.0,12.0,41,0.00,,CLR,0.00,VWS V12.08,2013-10-21 19:40:00,
2013-10-21 15:45:00,64.5,40.9,29.98,SSE,163,3.0,7.0,42,0.00,,CLR,0.00,VWS V12.08,2013-10-21 19:45:00,
2013-10-21 15:50:00,64.3,40.7,29.98,East,92,1.0,10.0,42,0.00,,CLR,0.00,VWS V12.08,2013-10-21 19:50:00,
2013-10-21 15:55:00,64.1,39.9,29.98,SW,231,1.0,12.0,41,0.00,,CLR,0.00,VWS V12.08,2013-10-21 19:55:00,
2013-10-21 16:00:00,64.1,41.2,29.98,SSW,197,1.0,12.0,43,0.00,,CLR,0.00,VWS V12.08,2013-10-21 20:00:00,
2013-10-21 16:05:00,63.9,40.4,29.98,NW,309,0.0,3.0,42,0.00,,CLR,0.00,VWS V12.08,2013-10-21 20:05:00,
2013-10-21 16:10:00,63.9,40.4,29.98,SSW,198,6.0,9.0,42,0.00,,CLR,0.00,VWS V12.08,2013-10-21 20:10:00,
2013-10-21 16:15:00,63.8,40.9,29.98,South,176,3.0,9.0,43,0.00,,CLR,0.00,VWS V12.08,2013-10-21 20:15:00,
2013-10-21 16:20:00,63.6,41.3,29.97,SSW,192,2.0,10.0,44,0.00,,CLR,0.00,VWS V12.08,2013-10-21 20:20:00,
2013-10-21 16:25:00,63.4,41.1,29.97,WSW,244,0.0,12.0,44,0.00,,CLR,0.00,VWS V12.08,2013-10-21 20:25:00,
2013-10-21 16:30:00,63.3,42.2,29.97,SSW,197,3.0,12.0,46,0.00,,CLR,0.00,VWS V12.08,2013-10-21 20:30:00,
2013-10-21 16:35:00,63.1,42.0,29.97,SSE,154,2.0,10.0,46,0.00,,CLR,0.00,VWS V12.08,2013-10-21 20:35:00,
2013-10-21 16:40:00,63.0,41.3,29.97,South,170,3.0,10.0,45,0.00,,CLR,0.00,VWS V12.08,2013-10-21 20:40:00,
2013-10-21 16:45:00,63.0,41.3,29.97,South,174,5.0,16.0,45,0.00,,CLR,0.00,VWS V12.08,2013-10-21 20:45:00,
2013-10-21 16:50:00,62.9,40.7,29.97,South,177,1.0,16.0,44,0.00,,CLR,0.00,VWS V12.08,2013-10-21 20:50:00,
2013-10-21 16:55:00,62.8,40.6,29.97,SSW,204,2.0,10.0,44,0.00,,CLR,0.00,VWS V12.08,2013-10-21 20:55:00,
2013-10-21 17:00:00,62.7,41.1,29.97,SE,131,0.0,10.0,45,0.00,,CLR,0.00,VWS V12.08,2013-10-21 21:00:00,
2013-10-21 17:05:00,62.6,41.5,29.97,South,185,2.0,4.0,46,0.00,,CLR,0.00,VWS V12.08,2013-10-21 21:05:00,
2013-10-21 17:10:00,62.4,41.4,29.97,SE,128,6.0,7.0,46,0.00,,CLR,0.00,VWS V12.08,2013-10-21 21:10:00,
2013-10-21 17:15:00,62.2,40.0,29.97,South,184,4.0,5.0,44,0.00,,CLR,0.00,VWS V12.08,2013-10-21 21:15:00,
2013-10-21 17:20:00,62.1,41.1,29.97,South,180,1.0,5.0,46,0.00,,CLR,0.00,VWS V12.08,2013-10-21 21:20:00,
2013-10-21 17:25:00,61.9,41.5,29.97,SW,215,0.0,6.0,47,0.00,,CLR,0.00,VWS V12.08,2013-10-21 21:25:00,
2013-10-21 17:30:00,61.6,40.6,29.97,SSE,167,4.0,9.0,46,0.00,,CLR,0.00,VWS V12.08,2013-10-21 21:30:00,
2013-10-21 17:35:00,61.4,40.5,29.97,SSW,196,0.0,5.0,46,0.00,,CLR,0.00,VWS V12.08,2013-10-21 21:35:00,
2013-10-21 17:40:00,61.2,40.3,29.97,SSW,195,0.0,5.0,46,0.00,,CLR,0.00,VWS V12.08,2013-10-21 21:40:00,
2013-10-21 17:45:00,60.9,40.0,29.97,SSW,200,1.0,12.0,46,0.00,,CLR,0.00,VWS V12.08,2013-10-21 21:45:00,
2013-10-21 17:50:00,60.7,39.8,29.97,SSW,195,0.0,12.0,46,0.00,,CLR,0.00,VWS V12.08,2013-10-21 21:50:00,
2013-10-21 17:55:00,60.5,39.6,29.97,South,169,3.0,7.0,46,0.00,,CLR,0.00,VWS V12.08,2013-10-21 21:55:00,
2013-10-21 18:00:00,60.4,40.1,29.97,South,173,0.0,7.0,47,0.00,,CLR,0.00,VWS V12.08,2013-10-21 22:00:00,
2013-10-21 18:05:00,60.1,40.4,29.97,South,176,0.0,4.0,48,0.00,,CLR,0.00,VWS V12.08,2013-10-21 22:05:00,
2013-10-21 18:10:00,59.6,40.4,29.97,South,179,0.0,4.0,49,0.00,,CLR,0.00,VWS V12.08,2013-10-21 22:10:00,
2013-10-21 18:15:00,59.1,40.0,29.97,South,182,2.0,3.0,49,0.00,,CLR,0.00,VWS V12.08,2013-10-21 22:15:00,
2013-10-21 18:20:00,58.6,40.5,29.97,South,182,0.0,3.0,51,0.00,,CLR,0.00,VWS V12.08,2013-10-21 22:20:00,
2013-10-21 18:25:00,57.9,40.9,29.97,South,188,0.0,3.0,53,0.00,,CLR,0.00,VWS V12.08,2013-10-21 22:25:00,
2013-10-21 18:30:00,57.2,40.2,29.97,South,189,0.0,3.0,53,0.00,,CLR,0.00,VWS V12.08,2013-10-21 22:30:00,
2013-10-21 18:35:00,56.6,40.2,29.98,South,189,0.0,0.0,54,0.00,,CLR,0.00,VWS V12.08,2013-10-21 22:35:00,
2013-10-21 18:40:00,56.0,40.5,29.98,South,189,0.0,0.0,56,0.00,,CLR,0.00,VWS V12.08,2013-10-21 22:40:00,
2013-10-21 18:45:00,55.5,41.0,29.98,South,189,0.0,0.0,58,0.00,,CLR,0.00,VWS V12.08,2013-10-21 22:45:00,
2013-10-21 18:50:00,55.0,40.1,29.99,South,189,0.0,0.0,57,0.00,,CLR,0.00,VWS V12.08,2013-10-21 22:50:00,
2013-10-21 18:55:00,54.6,40.6,29.99,South,189,0.0,2.0,59,0.00,,CLR,0.00,VWS V12.08,2013-10-21 22:55:00,
2013-10-21 19:00:00,54.3,40.7,29.99,South,189,0.0,2.0,60,0.00,,CLR,0.00,VWS V12.08,2013-10-21 23:00:00,
2013-10-21 19:05:00,53.9,41.2,29.99,SSW,196,0.0,3.0,62,0.00,,CLR,0.00,VWS V12.08,2013-10-21 23:05:00,
2013-10-21 19:10:00,53.6,40.5,29.99,SSE,168,0.0,4.0,61,0.00,,CLR,0.00,VWS V12.08,2013-10-21 23:10:00,
2013-10-21 19:16:00,53.4,40.3,29.99,South,178,0.0,3.0,61,0.00,,CLR,0.00,VWS V12.08,2013-10-21 23:16:00,
2013-10-21 19:20:00,58.4,40.4,29.97,South,182,0.0,3.0,51,0.00,,CLR,0.00,VWS V12.08,2013-10-21 23:20:00,
2013-10-21 19:21:00,53.1,40.4,29.99,South,178,0.0,3.0,62,0.00,,CLR,0.00,VWS V12.08,2013-10-21 23:21:00,
2013-10-21 19:26:00,52.9,40.2,29.99,SSW,193,4.0,4.0,62,0.00,,CLR,0.00,VWS V12.08,2013-10-21 23:26:00,
2013-10-21 19:30:00,57.1,41.1,29.98,South,189,0.0,3.0,55,0.00,,CLR,0.00,VWS V12.08,2013-10-21 23:30:00,
2013-10-21 19:31:00,52.7,40.9,29.99,SSE,161,0.0,4.0,64,0.00,,CLR,0.00,VWS V12.08,2013-10-21 23:31:00,
2013-10-21 19:36:00,52.5,40.3,29.99,SSE,161,0.0,1.0,63,0.00,,CLR,0.00,VWS V12.08,2013-10-21 23:36:00,
2013-10-21 19:40:00,55.9,40.5,29.98,South,189,0.0,0.0,56,0.00,,CLR,0.00,VWS V12.08,2013-10-21 23:40:00,
2013-10-21 19:41:00,52.4,39.8,29.99,South,183,0.0,3.0,62,0.00,,CLR,0.00,VWS V12.08,2013-10-21 23:41:00,
2013-10-21 19:46:00,52.3,40.9,29.99,ESE,120,0.0,2.0,65,0.00,,CLR,0.00,VWS V12.08,2013-10-21 23:46:00,
2013-10-21 19:50:00,54.9,40.0,29.99,South,189,2.0,2.0,57,0.00,,CLR,0.00,VWS V12.08,2013-10-21 23:50:00,
2013-10-21 19:51:00,52.2,39.6,29.99,SSE,167,0.0,6.0,62,0.00,,CLR,0.00,VWS V12.08,2013-10-21 23:51:00,
2013-10-21 19:56:00,52.2,39.2,29.99,SSE,165,2.0,3.0,61,0.00,,CLR,0.00,VWS V12.08,2013-10-21 23:56:00,
2013-10-21 20:00:00,54.2,41.1,29.99,South,189,0.0,2.0,61,0.00,,CLR,0.00,VWS V12.08,2013-10-22 00:00:00,
2013-10-21 20:01:00,52.2,40.0,29.99,SSE,167,0.0,5.0,63,0.00,,CLR,0.00,VWS V12.08,2013-10-22 00:01:00,
2013-10-21 20:06:00,52.2,40.4,29.99,SSW,202,0.0,4.0,64,0.00,,CLR,0.00,VWS V12.08,2013-10-22 00:06:00,
2013-10-21 20:10:00,53.6,40.1,29.99,South,189,1.0,4.0,60,0.00,,CLR,0.00,VWS V12.08,2013-10-22 00:10:00,
2013-10-21 20:11:00,52.1,39.9,29.99,South,190,0.0,4.0,63,0.00,,CLR,0.00,VWS V12.08,2013-10-22 00:11:00,
2013-10-21 20:16:00,51.9,40.1,29.99,SSW,201,0.0,4.0,64,0.00,,CLR,0.00,VWS V12.08,2013-10-22 00:16:00,
2013-10-21 20:20:00,53.1,40.4,29.99,South,178,0.0,3.0,62,0.00,,CLR,0.00,VWS V12.08,2013-10-22 00:20:00,
2013-10-21 20:21:00,51.9,39.7,29.99,SSW,194,1.0,4.0,63,0.00,,CLR,0.00,VWS V12.08,2013-10-22 00:21:00,
2013-10-21 20:26:00,51.9,40.5,29.99,South,174,0.0,3.0,65,0.00,,CLR,0.00,VWS V12.08,2013-10-22 00:26:00,
2013-10-21 20:30:00,52.6,40.4,29.99,SSE,161,0.0,4.0,63,0.00,,CLR,0.00,VWS V12.08,2013-10-22 00:30:00,
2013-10-21 20:31:00,51.8,40.4,29.99,SSW,202,0.0,3.0,65,0.00,,CLR,0.00,VWS V12.08,2013-10-22 00:31:00,
2013-10-21 20:36:00,51.7,39.9,29.99,SSW,202,0.0,2.0,64,0.00,,CLR,0.00,VWS V12.08,2013-10-22 00:36:00,
2013-10-21 20:40:00,52.4,40.6,29.99,East,96,0.0,3.0,64,0.00,,CLR,0.00,VWS V12.08,2013-10-22 00:40:00,
2013-10-21 20:41:00,51.6,40.6,29.99,SSW,202,0.0,2.0,66,0.00,,CLR,0.00,VWS V12.08,2013-10-22 00:41:00,
2013-10-21 20:46:00,51.7,41.1,29.98,SSW,202,0.0,2.0,67,0.00,,CLR,0.00,VWS V12.08,2013-10-22 00:46:00,
2013-10-21 20:50:00,52.2,40.0,29.99,SSE,167,1.0,6.0,63,0.00,,CLR,0.00,VWS V12.08,2013-10-22 00:50:00,
2013-10-21 20:51:00,51.6,41.0,29.98,SSW,203,0.0,2.0,67,0.00,,CLR,0.00,VWS V12.08,2013-10-22 00:51:00,
2013-10-21 20:56:00,51.4,41.2,29.98,SSW,198,0.0,1.0,68,0.00,,CLR,0.00,VWS V12.08,2013-10-22 00:56:00,
2013-10-21 21:00:00,52.3,40.1,29.99,SSE,167,1.0,5.0,63,0.00,,CLR,0.00,VWS V12.08,2013-10-22 01:00:00,
2013-10-21 21:01:00,51.2,41.4,29.99,SSW,198,0.0,1.0,69,0.00,,CLR,0.00,VWS V12.08,2013-10-22 01:01:00,
2013-10-21 21:06:00,51.0,41.9,29.99,South,188,0.0,0.0,71,0.00,,CLR,0.00,VWS V12.08,2013-10-22 01:06:00,
2013-10-21 21:10:00,52.1,40.3,29.99,South,190,0.0,4.0,64,0.00,,CLR,0.00,VWS V12.08,2013-10-22 01:10:00,
2013-10-21 21:11:00,50.7,41.7,29.99,South,188,0.0,0.0,71,0.00,,CLR,0.00,VWS V12.08,2013-10-22 01:11:00,
2013-10-21 21:16:00,50.5,41.8,29.99,South,186,2.0,2.0,72,0.00,,CLR,0.00,VWS V12.08,2013-10-22 01:16:00,
2013-10-21 21:20:00,51.9,40.1,29.99,South,173,2.0,5.0,64,0.00,,CLR,0.00,VWS V12.08,2013-10-22 01:20:00,
2013-10-21 21:21:00,50.4,42.4,29.99,South,188,0.0,2.0,74,0.00,,CLR,0.00,VWS V12.08,2013-10-22 01:21:00,
2013-10-21 21:26:00,50.4,42.4,29.99,South,188,0.0,1.0,74,0.00,,CLR,0.00,VWS V12.08,2013-10-22 01:26:00,
2013-10-21 21:30:00,51.8,40.4,29.99,SSW,202,1.0,3.0,65,0.00,,CLR,0.00,VWS V12.08,2013-10-22 01:30:00,
2013-10-21 21:31:00,50.4,42.8,29.99,SSW,202,0.0,6.0,75,0.00,,CLR,0.00,VWS V12.08,2013-10-22 01:31:00,
2013-10-21 21:36:00,50.5,42.9,29.99,SSW,202,0.0,1.0,75,0.00,,CLR,0.00,VWS V12.08,2013-10-22 01:36:00,
2013-10-21 21:40:00,51.6,41.0,29.99,SSW,202,0.0,2.0,67,0.00,,CLR,0.00,VWS V12.08,2013-10-22 01:40:00,
2013-10-21 21:41:00,50.5,43.6,29.99,SSW,198,0.0,4.0,77,0.00,,CLR,0.00,VWS V12.08,2013-10-22 01:41:00,
2013-10-21 21:46:00,50.4,43.1,29.99,South,190,1.0,1.0,76,0.00,,CLR,0.00,VWS V12.08,2013-10-22 01:46:00,
2013-10-21 21:50:00,51.5,41.3,29.98,SSW,198,0.0,2.0,68,0.00,,CLR,0.00,VWS V12.08,2013-10-22 01:50:00,
2013-10-21 21:51:00,50.4,43.5,29.98,South,190,0.0,2.0,77,0.00,,CLR,0.00,VWS V12.08,2013-10-22 01:51:00,
2013-10-21 21:54:00,50.3,43.4,29.98,South,190,0.0,0.0,77,0.00,,CLR,0.00,VWS V12.08,2013-10-22 01:54:00,
2013-10-21 21:59:00,50.2,43.6,29.98,SSW,192,0.0,2.0,78,0.00,,CLR,0.00,VWS V12.08,2013-10-22 01:59:00,
2013-10-21 22:00:00,51.2,41.4,29.99,South,188,0.0,1.0,69,0.00,,CLR,0.00,VWS V12.08,2013-10-22 02:00:00,
2013-10-21 22:04:00,50.1,43.5,29.97,SSW,192,0.0,0.0,78,0.00,,CLR,0.00,VWS V12.08,2013-10-22 02:04:00,
2013-10-21 22:09:00,50.0,43.8,29.97,SSW,192,0.0,0.0,79,0.00,,CLR,0.00,VWS V12.08,2013-10-22 02:09:00,
2013-10-21 22:10:00,50.7,41.7,29.99,South,188,0.0,0.0,71,0.00,,CLR,0.00,VWS V12.08,2013-10-22 02:10:00,
2013-10-21 22:14:00,49.9,43.7,29.97,South,188,0.0,2.0,79,0.00,,CLR,0.00,VWS V12.08,2013-10-22 02:14:00,
2013-10-21 22:19:00,49.8,43.9,29.96,WSW,256,0.0,3.0,80,0.00,,CLR,0.00,VWS V12.08,2013-10-22 02:19:00,
2013-10-21 22:20:00,50.4,42.4,29.99,South,188,0.0,2.0,74,0.00,,CLR,0.00,VWS V12.08,2013-10-22 02:20:00,
2013-10-21 22:24:00,49.8,44.2,29.96,South,188,2.0,2.0,81,0.00,,CLR,0.00,VWS V12.08,2013-10-22 02:24:00,
2013-10-21 22:29:00,49.9,44.3,29.96,SSE,162,0.0,3.0,81,0.00,,CLR,0.00,VWS V12.08,2013-10-22 02:29:00,
2013-10-21 22:30:00,50.4,42.8,29.99,SSW,202,0.0,6.0,75,0.00,,CLR,0.00,VWS V12.08,2013-10-22 02:30:00,
2013-10-21 22:34:00,50.0,44.4,29.95,SSE,168,0.0,2.0,81,0.00,,CLR,0.00,VWS V12.08,2013-10-22 02:34:00,
2013-10-21 22:39:00,50.0,44.4,29.95,SW,217,0.0,2.0,81,0.00,,CLR,0.00,VWS V12.08,2013-10-22 02:39:00,
2013-10-21 22:40:00,50.5,43.2,29.99,SSW,198,0.0,4.0,76,0.00,,CLR,0.00,VWS V12.08,2013-10-22 02:40:00,
2013-10-21 22:44:00,50.1,44.2,29.95,WNW,301,0.0,2.0,80,0.00,,CLR,0.00,VWS V12.08,2013-10-22 02:44:00,
2013-10-21 22:49:00,50.1,44.5,29.95,WNW,301,0.0,2.0,81,0.00,,CLR,0.00,VWS V12.08,2013-10-22 02:49:00,
2013-10-21 22:50:00,50.4,43.5,29.98,South,190,0.0,2.0,77,0.00,,CLR,0.00,VWS V12.08,2013-10-22 02:50:00,
2013-10-21 22:54:00,50.0,44.4,29.95,WNW,301,0.0,0.0,81,0.00,,CLR,0.00,VWS V12.08,2013-10-22 02:54:00,
2013-10-21 22:59:00,49.8,44.5,29.95,WNW,301,0.0,0.0,82,0.00,,CLR,0.00,VWS V12.08,2013-10-22 02:59:00,
2013-10-21 23:00:00,50.1,43.5,29.97,SSW,192,0.0,2.0,78,0.00,,CLR,0.00,VWS V12.08,2013-10-22 03:00:00,
2013-10-21 23:04:00,49.6,44.3,29.95,West,276,0.0,1.0,82,0.00,,CLR,0.00,VWS V12.08,2013-10-22 03:04:00,
2013-10-21 23:09:00,49.4,44.1,29.95,West,276,0.0,1.0,82,0.00,,CLR,0.00,VWS V12.08,2013-10-22 03:09:00,
2013-10-21 23:10:00,49.9,43.7,29.97,SSW,192,0.0,0.0,79,0.00,,CLR,0.00,VWS V12.08,2013-10-22 03:10:00,
2013-10-21 23:14:00,49.2,44.3,29.95,West,276,0.0,0.0,83,0.00,,CLR,0.00,VWS V12.08,2013-10-22 03:14:00,
2013-10-21 23:19:00,49.0,44.4,29.95,West,276,0.0,0.0,84,0.00,,CLR,0.00,VWS V12.08,2013-10-22 03:19:00,
2013-10-21 23:20:00,49.8,43.9,29.96,WSW,256,0.0,3.0,80,0.00,,CLR,0.00,VWS V12.08,2013-10-22 03:20:00,
2013-10-21 23:24:00,48.7,44.4,29.95,West,276,0.0,0.0,85,0.00,,CLR,0.00,VWS V12.08,2013-10-22 03:24:00,
2013-10-21 23:29:00,48.6,44.3,29.95,West,276,0.0,0.0,85,0.00,,CLR,0.00,VWS V12.08,2013-10-22 03:29:00,
2013-10-21 23:30:00,49.9,44.3,29.95,SSW,206,1.0,4.0,81,0.00,,CLR,0.00,VWS V12.08,2013-10-22 03:30:00,
2013-10-21 23:34:00,48.4,44.4,29.94,West,276,0.0,0.0,86,0.00,,CLR,0.00,VWS V12.08,2013-10-22 03:34:00,
2013-10-21 23:39:00,48.3,44.3,29.94,West,276,0.0,0.0,86,0.00,,CLR,0.00,VWS V12.08,2013-10-22 03:39:00,
2013-10-21 23:40:00,50.1,44.5,29.95,SW,217,0.0,2.0,81,0.00,,CLR,0.00,VWS V12.08,2013-10-22 03:40:00,
2013-10-21 23:44:00,48.2,44.2,29.94,West,276,0.0,0.0,86,0.00,,CLR,0.00,VWS V12.08,2013-10-22 03:44:00,
2013-10-21 23:49:00,48.1,44.4,29.94,West,276,0.0,0.0,87,0.00,,CLR,0.00,VWS V12.08,2013-10-22 03:49:00,
2013-10-21 23:50:00,50.1,44.5,29.95,WNW,301,0.0,2.0,81,0.00,,CLR,0.00,VWS V12.08,2013-10-22 03:50:00,
2013-10-21 23:54:00,48.1,44.4,29.94,West,276,0.0,0.0,87,0.00,,CLR,0.00,VWS V12.08,2013-10-22 03:54:00,
2013-10-21 23:59:00,47.9,44.2,29.94,West,276,0.0,0.0,87,0.00,,CLR,0.00,VWS V12.08,2013-10-22 03:59:00,